createdAt,value
2023-05-22T00:07:20.928Z,8.13
2023-05-22T00:17:42.545Z,8.35
2023-05-22T00:28:04.877Z,7.60
2023-05-22T00:38:37.870Z,7.80
2023-05-22T00:48:59.245Z,7.15
2023-05-22T00:59:21.223Z,8.05
2023-05-22T01:09:42.729Z,6.85
2023-05-22T01:20:32.425Z,7.30
2023-05-22T01:31:08.352Z,7.43
2023-05-22T01:51:57.693Z,7.38
2023-05-22T02:02:20.559Z,6.45
2023-05-22T02:12:42.412Z,5.68
2023-05-22T02:23:04.172Z,6.65
2023-05-22T02:33:27.202Z,6.13
2023-05-22T02:43:48.751Z,6.35
2023-05-22T02:54:10.280Z,6.00
2023-05-22T03:04:31.405Z,6.15
2023-05-22T03:14:53.083Z,6.50
2023-05-22T03:25:14.589Z,6.50
2023-05-22T03:35:36.782Z,8.02
2023-05-22T03:45:59.560Z,7.20
2023-05-22T03:56:22.402Z,6.55
2023-05-22T04:06:44.233Z,5.57
2023-05-22T04:17:07.530Z,5.32
2023-05-22T04:27:30.212Z,6.80
2023-05-22T04:37:51.890Z,6.38
2023-05-22T04:48:13.201Z,6.72
2023-05-22T04:58:34.945Z,6.43
2023-05-22T05:08:56.461Z,7.50
2023-05-22T05:19:21.776Z,5.38
2023-05-22T05:29:43.934Z,5.93
2023-05-22T05:40:13.980Z,6.35
2023-05-22T05:50:40.883Z,5.20
2023-05-22T06:01:03.930Z,6.05
2023-05-22T06:11:26.337Z,5.32
2023-05-22T06:21:50.285Z,5.25
2023-05-22T06:32:14.652Z,6.53
2023-05-22T06:42:37.901Z,7.60
2023-05-22T06:53:25.698Z,6.07
2023-05-22T07:03:47.343Z,4.95
2023-05-22T07:14:40.981Z,5.68
2023-05-22T07:25:02.266Z,5.78
2023-05-22T07:35:27.834Z,5.60
2023-05-22T07:45:49.523Z,5.53
2023-05-22T07:56:17.807Z,5.65
2023-05-22T08:06:41.390Z,5.43
2023-05-22T08:17:02.967Z,6.10
2023-05-22T08:27:24.717Z,7.82
2023-05-22T08:37:46.669Z,5.35
2023-05-22T08:48:13.263Z,5.97
2023-05-22T08:58:36.360Z,4.93
2023-05-22T09:08:58.310Z,5.20
2023-05-22T09:19:19.934Z,7.03
2023-05-22T09:29:51.542Z,5.97
2023-05-22T09:40:14.430Z,5.25
2023-05-22T09:50:37.208Z,5.10
2023-05-22T10:00:59.527Z,5.28
2023-05-22T10:11:22.132Z,6.28
2023-05-22T10:21:45.873Z,5.60
2023-05-22T10:32:19.616Z,5.63
2023-05-22T10:42:50.264Z,5.18
2023-05-22T10:53:28.923Z,7.18
2023-05-22T11:03:58.567Z,6.10
2023-05-22T11:14:20.987Z,6.72
2023-05-22T11:24:42.953Z,6.43
2023-05-22T11:35:05.687Z,5.55
2023-05-22T11:45:27.228Z,6.18
2023-05-22T11:55:49.942Z,6.65
2023-05-22T12:06:11.514Z,5.78
2023-05-22T12:16:36.894Z,6.38
2023-05-22T12:26:58.287Z,4.70
2023-05-22T12:37:21.276Z,5.78
2023-05-22T12:47:42.581Z,6.05
2023-05-22T12:58:04.621Z,5.70
2023-05-22T13:08:26.066Z,5.97
2023-05-22T13:18:48.070Z,5.60
2023-05-22T13:29:09.716Z,6.32
2023-05-22T13:39:30.847Z,6.68
2023-05-22T13:49:52.627Z,5.35
2023-05-22T14:00:14.341Z,8.50
2023-05-22T14:10:36.340Z,5.28
2023-05-22T14:20:57.312Z,7.07
2023-05-22T14:31:18.277Z,11.75
2023-05-22T14:41:39.571Z,9.65
2023-05-22T14:52:02.068Z,7.10
2023-05-22T15:02:24.920Z,7.53
2023-05-22T15:12:46.668Z,8.02
2023-05-22T15:23:08.082Z,6.80
2023-05-22T15:33:29.733Z,7.28
2023-05-22T15:43:53.439Z,7.20
2023-05-22T15:54:14.908Z,7.50
2023-05-22T16:04:36.463Z,5.57
2023-05-22T16:15:00.735Z,5.25
2023-05-22T16:25:22.898Z,7.38
2023-05-22T16:35:47.211Z,7.22
2023-05-22T16:46:08.977Z,8.45
2023-05-22T16:56:32.939Z,10.57
2023-05-22T17:06:56.017Z,12.17
2023-05-22T17:17:17.443Z,11.85
2023-05-22T17:27:39.081Z,9.40
2023-05-22T17:38:00.789Z,9.70
2023-05-22T17:48:24.023Z,10.02
2023-05-22T17:58:45.610Z,7.97
2023-05-22T18:09:08.068Z,9.23
2023-05-22T18:19:29.915Z,9.45
2023-05-22T18:29:52.097Z,8.98
2023-05-22T18:40:13.772Z,7.30
2023-05-22T18:50:35.082Z,8.52
2023-05-22T19:00:56.663Z,7.43
2023-05-22T19:11:18.895Z,7.40
2023-05-22T19:21:40.664Z,6.22
2023-05-22T19:32:03.148Z,6.57
2023-05-22T19:42:24.512Z,6.43
2023-05-22T19:52:46.153Z,5.47
2023-05-22T20:03:07.579Z,8.02
2023-05-22T20:13:29.111Z,7.18
2023-05-22T20:23:50.144Z,7.18
2023-05-22T20:34:11.930Z,6.05
2023-05-22T20:44:33.350Z,5.63
2023-05-22T20:54:54.575Z,5.85
2023-05-22T21:05:16.259Z,11.20
2023-05-22T21:15:37.735Z,8.60
2023-05-22T21:25:58.995Z,8.27
2023-05-22T21:36:20.440Z,10.52
2023-05-22T21:46:42.354Z,8.32
2023-05-22T21:57:03.687Z,9.32
2023-05-22T22:07:26.036Z,7.70
2023-05-22T22:17:47.762Z,8.65
2023-05-22T22:28:09.257Z,7.95
2023-05-22T22:38:33.092Z,7.90
2023-05-22T22:48:55.655Z,6.95
2023-05-22T22:59:17.318Z,7.22
2023-05-22T23:09:40.652Z,7.85
2023-05-22T23:20:02.240Z,7.80
2023-05-22T23:30:23.598Z,8.40
2023-05-22T23:40:45.230Z,6.95
2023-05-22T23:51:10.346Z,10.18
